createdAt,value
2018-02-10T00:00:26.940Z,1009.95
2018-02-10T00:01:26.806Z,1009.98
2018-02-10T00:02:26.843Z,1009.94
2018-02-10T00:03:26.749Z,1009.95
2018-02-10T00:04:26.751Z,1009.92
2018-02-10T00:05:26.681Z,1009.96
2018-02-10T00:06:26.665Z,1009.93
2018-02-10T00:07:26.624Z,1009.95
2018-02-10T00:08:26.680Z,1009.93
2018-02-10T00:09:26.558Z,1009.95
2018-02-10T00:10:26.588Z,1009.94
2018-02-10T00:11:26.500Z,1009.95
2018-02-10T00:12:26.498Z,1009.96
2018-02-10T00:13:26.436Z,1009.95
2018-02-10T00:14:26.510Z,1009.95
2018-02-10T00:15:26.377Z,1009.96
2018-02-10T00:16:26.420Z,1009.99
2018-02-10T00:17:26.315Z,1009.98
2018-02-10T00:18:26.332Z,1009.99
2018-02-10T00:19:26.249Z,1009.97
2018-02-10T00:20:26.240Z,1009.97
2018-02-10T00:21:26.188Z,1009.95
2018-02-10T00:22:26.254Z,1009.94
2018-02-10T00:23:26.129Z,1009.97
2018-02-10T00:24:26.163Z,1009.96
2018-02-10T00:25:26.065Z,1009.98
2018-02-10T00:26:26.074Z,1009.97
2018-02-10T00:27:26.003Z,1010.00
2018-02-10T00:28:26.086Z,1009.98
2018-02-10T00:29:25.939Z,1009.99
2018-02-10T00:30:25.996Z,1009.98
2018-02-10T00:31:25.881Z,1009.98
2018-02-10T00:32:25.906Z,1009.98
2018-02-10T00:33:25.818Z,1009.95
2018-02-10T00:34:25.814Z,1009.97
2018-02-10T00:35:25.755Z,1009.98
2018-02-10T00:36:25.830Z,1009.97
2018-02-10T00:37:25.695Z,1009.96
2018-02-10T00:38:25.741Z,1009.99
2018-02-10T00:39:25.635Z,1009.98
2018-02-10T00:40:25.650Z,1009.95
2018-02-10T00:41:25.571Z,1009.94
2018-02-10T00:42:25.561Z,1009.96
2018-02-10T00:43:25.511Z,1009.96
2018-02-10T00:44:25.576Z,1009.95
2018-02-10T00:45:25.448Z,1009.97
2018-02-10T00:46:25.479Z,1010.01
2018-02-10T00:47:25.389Z,1010.00
2018-02-10T00:48:25.393Z,1009.97
2018-02-10T00:49:25.326Z,1009.96
2018-02-10T00:50:25.404Z,1009.99
2018-02-10T00:51:25.270Z,1010.01
2018-02-10T00:52:25.316Z,1010.04
2018-02-10T00:53:25.203Z,1010.03
2018-02-10T00:54:25.224Z,1010.01
2018-02-10T00:55:25.142Z,1010.06
2018-02-10T00:56:25.134Z,1010.04
2018-02-10T00:57:25.081Z,1010.04
2018-02-10T00:58:25.153Z,1010.07
2018-02-10T00:59:25.023Z,1010.06
2018-02-10T01:00:25.063Z,1010.05
2018-02-10T01:01:24.958Z,1010.02
2018-02-10T01:02:24.968Z,1010.08
2018-02-10T01:03:24.896Z,1010.04
2018-02-10T01:04:24.983Z,1010.03
2018-02-10T01:05:24.829Z,1010.10
2018-02-10T01:06:24.889Z,1010.10
2018-02-10T01:07:24.772Z,1010.13
2018-02-10T01:08:24.801Z,1010.16
2018-02-10T01:09:24.716Z,1010.16
2018-02-10T01:10:24.710Z,1010.12
2018-02-10T01:11:24.652Z,1010.16
2018-02-10T01:12:24.726Z,1010.19
2018-02-10T01:13:24.593Z,1010.21
2018-02-10T01:14:24.632Z,1010.19
2018-02-10T01:15:24.527Z,1010.18
2018-02-10T01:16:24.545Z,1010.20
2018-02-10T01:17:24.465Z,1010.15
2018-02-10T01:18:24.452Z,1010.16
2018-02-10T01:19:24.404Z,1010.17
2018-02-10T01:20:24.465Z,1010.20
2018-02-10T01:21:24.341Z,1010.13
2018-02-10T01:22:24.377Z,1010.13
2018-02-10T01:23:24.281Z,1010.15
2018-02-10T01:24:24.287Z,1010.13
2018-02-10T01:25:24.221Z,1010.11
2018-02-10T01:26:24.298Z,1010.13
2018-02-10T01:27:24.162Z,1010.15
2018-02-10T01:28:24.207Z,1010.18
2018-02-10T01:29:24.096Z,1010.18
2018-02-10T01:30:24.118Z,1010.17
2018-02-10T01:31:24.036Z,1010.18
2018-02-10T01:32:24.027Z,1010.15
2018-02-10T01:33:23.973Z,1010.17
2018-02-10T01:34:24.050Z,1010.20
2018-02-10T01:35:23.912Z,1010.20
2018-02-10T01:36:24.010Z,1010.24
2018-02-10T01:37:23.850Z,1010.23
2018-02-10T01:38:23.861Z,1010.25
2018-02-10T01:39:23.790Z,1010.26
2018-02-10T01:40:23.873Z,1010.27
2018-02-10T01:41:23.729Z,1010.26
2018-02-10T01:42:23.783Z,1010.22
2018-02-10T01:43:23.668Z,1010.22
2018-02-10T01:44:23.693Z,1010.21
2018-02-10T01:45:23.604Z,1010.20
2018-02-10T01:46:23.631Z,1010.23
2018-02-10T01:47:23.545Z,1010.19
2018-02-10T01:48:23.615Z,1010.19
2018-02-10T01:49:23.480Z,1010.23
2018-02-10T01:50:23.524Z,1010.17
2018-02-10T01:51:23.424Z,1010.19
2018-02-10T01:52:23.437Z,1010.12
2018-02-10T01:53:23.357Z,1010.15
2018-02-10T01:54:23.345Z,1010.19
2018-02-10T01:55:23.295Z,1010.16
2018-02-10T01:56:23.359Z,1010.22
2018-02-10T01:57:23.234Z,1010.21
2018-02-10T01:58:23.268Z,1010.17
2018-02-10T01:59:23.175Z,1010.20
2018-02-10T02:00:23.179Z,1010.20
2018-02-10T02:01:23.109Z,1010.18
2018-02-10T02:02:23.196Z,1010.21
2018-02-10T02:03:23.049Z,1010.17
2018-02-10T02:04:23.099Z,1010.20
2018-02-10T02:05:22.987Z,1010.15
2018-02-10T02:06:23.010Z,1010.18
2018-02-10T02:07:22.928Z,1010.15
2018-02-10T02:08:22.921Z,1010.15
2018-02-10T02:09:22.862Z,1010.16
2018-02-10T02:10:22.934Z,1010.17
2018-02-10T02:11:22.803Z,1010.18
2018-02-10T02:12:22.844Z,1010.16
2018-02-10T02:13:22.746Z,1010.18
2018-02-10T02:14:22.754Z,1010.16
2018-02-10T02:15:22.679Z,1010.19
2018-02-10T02:16:22.666Z,1010.16
2018-02-10T02:17:22.615Z,1010.14
2018-02-10T02:18:22.678Z,1010.15
2018-02-10T02:19:22.554Z,1010.16
2018-02-10T02:20:22.586Z,1010.18
2018-02-10T02:21:22.490Z,1010.15
2018-02-10T02:22:22.495Z,1010.15
2018-02-10T02:23:22.431Z,1010.15
2018-02-10T02:24:22.509Z,1010.23
2018-02-10T02:25:22.371Z,1010.26
2018-02-10T02:26:22.419Z,1010.26
2018-02-10T02:27:22.307Z,1010.27
2018-02-10T02:28:22.330Z,1010.31
2018-02-10T02:29:22.247Z,1010.31
2018-02-10T02:30:22.239Z,1010.31
2018-02-10T02:31:22.184Z,1010.35
2018-02-10T02:32:22.252Z,1010.36
2018-02-10T02:33:22.124Z,1010.36
2018-02-10T02:34:22.163Z,1010.32
2018-02-10T02:35:22.063Z,1010.38
2018-02-10T02:36:22.072Z,1010.40
2018-02-10T02:37:22.000Z,1010.37
2018-02-10T02:38:21.986Z,1010.41
2018-02-10T02:39:21.936Z,1010.41
2018-02-10T02:40:21.994Z,1010.45
2018-02-10T02:41:21.876Z,1010.41
2018-02-10T02:42:21.904Z,1010.46
2018-02-10T02:43:21.815Z,1010.41
2018-02-10T02:44:21.812Z,1010.46
2018-02-10T02:45:21.753Z,1010.43
2018-02-10T02:46:21.830Z,1010.46
2018-02-10T02:47:21.694Z,1010.44
2018-02-10T02:48:21.736Z,1010.39
2018-02-10T02:49:21.631Z,1010.43
2018-02-10T02:50:21.645Z,1010.40
2018-02-10T02:51:21.568Z,1010.46
2018-02-10T02:52:21.559Z,1010.47
2018-02-10T02:53:21.508Z,1010.52
2018-02-10T02:54:21.569Z,1010.48
2018-02-10T02:55:21.446Z,1010.47
2018-02-10T02:56:21.478Z,1010.50
2018-02-10T02:57:21.381Z,1010.56
2018-02-10T02:58:21.390Z,1010.45
2018-02-10T02:59:21.323Z,1010.48
2018-02-10T03:00:21.402Z,1010.53
2018-02-10T03:01:21.261Z,1010.49
2018-02-10T03:02:21.312Z,1010.49
2018-02-10T03:03:21.198Z,1010.43
2018-02-10T03:04:21.222Z,1010.45
2018-02-10T03:05:21.134Z,1010.52
2018-02-10T03:06:21.134Z,1010.45
2018-02-10T03:07:21.081Z,1010.49
2018-02-10T03:08:21.145Z,1010.51
2018-02-10T03:09:21.013Z,1010.47
2018-02-10T03:10:21.056Z,1010.50
2018-02-10T03:11:20.953Z,1010.55
2018-02-10T03:12:20.970Z,1010.57
2018-02-10T03:13:20.892Z,1010.51
2018-02-10T03:14:20.874Z,1010.59
2018-02-10T03:15:20.832Z,1010.56
2018-02-10T03:16:20.887Z,1010.61
2018-02-10T03:17:20.766Z,1010.63
2018-02-10T03:18:20.799Z,1010.54
2018-02-10T03:19:20.706Z,1010.74
2018-02-10T03:20:20.708Z,1010.56
2018-02-10T03:21:20.646Z,1010.63
2018-02-10T03:22:20.713Z,1010.56
2018-02-10T03:23:20.583Z,1010.58
2018-02-10T03:24:20.633Z,1010.62
2018-02-10T03:25:20.522Z,1010.59
2018-02-10T03:26:20.543Z,1010.59
2018-02-10T03:27:20.460Z,1010.59
2018-02-10T03:28:20.450Z,1010.59
2018-02-10T03:29:20.398Z,1010.59
2018-02-10T03:30:20.464Z,1010.65
2018-02-10T03:31:20.336Z,1010.63
2018-02-10T03:32:20.372Z,1010.63
2018-02-10T03:33:20.272Z,1010.68
2018-02-10T03:34:20.284Z,1010.69
2018-02-10T03:35:20.214Z,1010.63
2018-02-10T03:36:20.295Z,1010.62
2018-02-10T03:37:20.149Z,1010.64
2018-02-10T03:38:20.207Z,1010.67
2018-02-10T03:39:20.090Z,1010.72
2018-02-10T03:40:20.116Z,1010.70
2018-02-10T03:41:20.027Z,1010.73
2018-02-10T03:42:20.026Z,1010.76
2018-02-10T03:43:19.964Z,1010.74
2018-02-10T03:44:20.039Z,1010.74
2018-02-10T03:45:19.904Z,1010.73
2018-02-10T03:46:19.948Z,1010.75
2018-02-10T03:47:19.846Z,1010.74
2018-02-10T03:48:19.859Z,1010.78
2018-02-10T03:49:19.778Z,1010.77
2018-02-10T03:50:19.768Z,1010.77
2018-02-10T03:51:19.716Z,1010.81
2018-02-10T03:52:19.781Z,1010.83
2018-02-10T03:53:19.658Z,1010.79
2018-02-10T03:54:19.693Z,1010.81
2018-02-10T03:55:19.595Z,1010.82
2018-02-10T03:56:19.599Z,1010.82
2018-02-10T03:57:19.531Z,1010.84
2018-02-10T03:58:19.615Z,1010.83
2018-02-10T03:59:19.474Z,1010.84
2018-02-10T04:00:19.529Z,1010.88
2018-02-10T04:01:19.411Z,1010.91
2018-02-10T04:02:19.434Z,1010.90
2018-02-10T04:03:19.346Z,1010.92
2018-02-10T04:04:19.344Z,1010.87
2018-02-10T04:05:19.286Z,1010.87
2018-02-10T04:06:19.379Z,1010.88
2018-02-10T04:07:19.221Z,1010.87
2018-02-10T04:08:19.266Z,1010.87
2018-02-10T04:09:19.163Z,1010.83
2018-02-10T04:10:19.177Z,1010.88
2018-02-10T04:11:19.101Z,1010.87
2018-02-10T04:12:19.087Z,1010.87
2018-02-10T04:13:19.044Z,1010.93
2018-02-10T04:14:19.102Z,1010.90
2018-02-10T04:15:19.016Z,1010.93
2018-02-10T04:16:19.009Z,1010.93
2018-02-10T04:17:18.916Z,1010.94
2018-02-10T04:18:18.922Z,1010.94
2018-02-10T04:19:18.854Z,1010.98
2018-02-10T04:20:18.934Z,1011.01
2018-02-10T04:21:18.794Z,1011.00
2018-02-10T04:22:18.845Z,1010.99
2018-02-10T04:23:18.731Z,1011.07
2018-02-10T04:24:18.762Z,1011.08
2018-02-10T04:25:18.672Z,1011.01
2018-02-10T04:26:18.663Z,1011.07
2018-02-10T04:27:18.610Z,1011.08
2018-02-10T04:28:18.676Z,1011.08
2018-02-10T04:29:18.546Z,1011.10
2018-02-10T04:30:18.581Z,1011.06
2018-02-10T04:31:18.485Z,1011.10
2018-02-10T04:32:18.496Z,1011.09
2018-02-10T04:33:18.424Z,1011.10
2018-02-10T04:34:18.505Z,1011.12
2018-02-10T04:35:18.363Z,1011.11
2018-02-10T04:36:18.418Z,1011.12
2018-02-10T04:37:18.302Z,1011.13
2018-02-10T04:38:18.330Z,1011.16
2018-02-10T04:39:18.243Z,1011.15
2018-02-10T04:40:18.238Z,1011.13
2018-02-10T04:41:18.182Z,1011.16
2018-02-10T04:42:18.249Z,1011.15
2018-02-10T04:43:18.119Z,1011.12
2018-02-10T04:44:18.161Z,1011.15
2018-02-10T04:45:18.058Z,1011.14
2018-02-10T04:46:18.072Z,1011.12
2018-02-10T04:47:18.003Z,1011.08
2018-02-10T04:48:17.979Z,1011.11
2018-02-10T04:49:17.936Z,1011.12
2018-02-10T04:50:17.995Z,1011.08
2018-02-10T04:51:17.875Z,1011.07
2018-02-10T04:52:17.901Z,1011.09
2018-02-10T04:53:17.813Z,1011.05
2018-02-10T04:54:17.815Z,1011.00
2018-02-10T04:55:17.752Z,1010.99
2018-02-10T04:56:17.823Z,1011.00
2018-02-10T04:57:17.691Z,1011.04
2018-02-10T04:58:17.735Z,1011.02
2018-02-10T04:59:17.630Z,1011.02
2018-02-10T05:00:17.648Z,1010.95
2018-02-10T05:01:17.569Z,1010.99
2018-02-10T05:02:17.556Z,1010.90
2018-02-10T05:03:17.508Z,1010.97
2018-02-10T05:04:17.571Z,1010.92
2018-02-10T05:05:17.449Z,1010.94
2018-02-10T05:06:17.479Z,1010.92
2018-02-10T05:07:17.384Z,1010.91
2018-02-10T05:08:17.384Z,1011.00
2018-02-10T05:09:17.324Z,1010.98
2018-02-10T05:10:17.401Z,1010.93
2018-02-10T05:11:17.265Z,1010.98
2018-02-10T05:12:17.311Z,1010.96
2018-02-10T05:13:17.201Z,1010.93
2018-02-10T05:14:17.220Z,1010.96
2018-02-10T05:15:17.141Z,1011.00
2018-02-10T05:16:17.131Z,1010.99
2018-02-10T05:17:17.081Z,1011.01
2018-02-10T05:18:17.146Z,1011.02
2018-02-10T05:19:17.020Z,1011.04
2018-02-10T05:20:17.053Z,1011.04
2018-02-10T05:21:16.968Z,1011.00
2018-02-10T05:22:16.963Z,1011.04
2018-02-10T05:23:16.900Z,1011.06
2018-02-10T05:24:16.977Z,1011.03
2018-02-10T05:25:16.839Z,1010.98
2018-02-10T05:26:16.884Z,1011.02
2018-02-10T05:27:16.773Z,1011.00
2018-02-10T05:28:16.797Z,1011.01
2018-02-10T05:29:16.717Z,1010.96
2018-02-10T05:30:16.708Z,1010.96
2018-02-10T05:31:16.654Z,1010.94
2018-02-10T05:32:16.717Z,1010.93
2018-02-10T05:33:16.592Z,1010.95
2018-02-10T05:34:16.628Z,1010.91
2018-02-10T05:35:16.532Z,1010.90
2018-02-10T05:36:16.539Z,1010.93
2018-02-10T05:37:16.505Z,1010.94
2018-02-10T05:38:16.551Z,1010.88
2018-02-10T05:39:16.410Z,1010.93
2018-02-10T05:40:16.462Z,1010.91
2018-02-10T05:41:16.348Z,1010.92
2018-02-10T05:42:16.371Z,1010.96
2018-02-10T05:43:16.287Z,1011.01
2018-02-10T05:44:16.283Z,1011.01
2018-02-10T05:45:16.227Z,1011.05
2018-02-10T05:46:16.296Z,1011.11
2018-02-10T05:47:16.163Z,1011.02
2018-02-10T05:48:16.203Z,1011.07
2018-02-10T05:49:16.100Z,1011.04
2018-02-10T05:50:16.114Z,1011.00
2018-02-10T05:51:16.075Z,1011.01
2018-02-10T05:52:16.132Z,1010.99
2018-02-10T05:53:15.980Z,1010.97
2018-02-10T05:54:16.038Z,1011.01
2018-02-10T05:55:15.921Z,1010.97
2018-02-10T05:56:15.943Z,1011.00
2018-02-10T05:57:15.861Z,1010.99
2018-02-10T05:58:15.858Z,1011.02
2018-02-10T05:59:15.797Z,1010.96
2018-02-10T06:00:15.868Z,1010.95
2018-02-10T06:01:15.736Z,1010.98
2018-02-10T06:02:15.783Z,1010.98
2018-02-10T06:03:15.676Z,1011.01
2018-02-10T06:04:15.690Z,1010.98
2018-02-10T06:05:15.616Z,1011.04
2018-02-10T06:06:15.597Z,1011.03
2018-02-10T06:07:15.550Z,1011.03
2018-02-10T06:08:15.616Z,1011.05
2018-02-10T06:09:15.492Z,1011.09
2018-02-10T06:10:15.522Z,1011.04
2018-02-10T06:11:15.433Z,1011.05
2018-02-10T06:12:15.436Z,1011.02
2018-02-10T06:13:15.376Z,1011.08
2018-02-10T06:14:15.441Z,1011.07
2018-02-10T06:15:15.308Z,1011.09
2018-02-10T06:16:15.355Z,1011.09
2018-02-10T06:17:15.249Z,1011.11
2018-02-10T06:18:15.265Z,1011.11
2018-02-10T06:19:15.189Z,1011.13
2018-02-10T06:20:15.174Z,1011.15
2018-02-10T06:21:15.124Z,1011.18
2018-02-10T06:22:15.187Z,1011.18
2018-02-10T06:23:15.064Z,1011.18
2018-02-10T06:24:15.098Z,1011.21
2018-02-10T06:25:15.004Z,1011.17
2018-02-10T06:26:15.008Z,1011.18
2018-02-10T06:27:14.941Z,1011.19
2018-02-10T06:28:15.026Z,1011.21
2018-02-10T06:29:14.878Z,1011.18
2018-02-10T06:30:14.934Z,1011.25
2018-02-10T06:31:14.818Z,1011.22
2018-02-10T06:32:14.846Z,1011.20
2018-02-10T06:33:14.755Z,1011.20
2018-02-10T06:34:14.751Z,1011.22
2018-02-10T06:35:14.695Z,1011.21
2018-02-10T06:36:14.762Z,1011.18
2018-02-10T06:37:14.632Z,1011.19
2018-02-10T06:38:14.677Z,1011.13
2018-02-10T06:39:14.571Z,1011.15
2018-02-10T06:40:14.586Z,1011.14
2018-02-10T06:41:14.510Z,1011.10
2018-02-10T06:42:14.497Z,1011.10
2018-02-10T06:43:14.450Z,1011.12
2018-02-10T06:44:14.507Z,1011.16
2018-02-10T06:45:14.394Z,1011.19
2018-02-10T06:46:14.419Z,1011.23
2018-02-10T06:47:14.327Z,1011.29
2018-02-10T06:48:14.327Z,1011.32
2018-02-10T06:49:14.265Z,1011.31
2018-02-10T06:50:14.343Z,1011.33
2018-02-10T06:51:14.203Z,1011.39
2018-02-10T06:52:14.248Z,1011.38
2018-02-10T06:53:14.141Z,1011.37
2018-02-10T06:54:14.158Z,1011.34
2018-02-10T06:55:14.075Z,1011.33
2018-02-10T06:56:14.068Z,1011.32
2018-02-10T06:57:14.018Z,1011.29
2018-02-10T06:58:14.084Z,1011.35
2018-02-10T06:59:13.956Z,1011.40
2018-02-10T07:00:13.991Z,1011.37
2018-02-10T07:01:13.897Z,1011.46
2018-02-10T07:02:13.902Z,1011.44
2018-02-10T07:03:13.841Z,1011.41
2018-02-10T07:04:13.914Z,1011.46
2018-02-10T07:05:13.773Z,1011.43
2018-02-10T07:06:13.824Z,1011.46
2018-02-10T07:07:13.713Z,1011.51
2018-02-10T07:08:13.735Z,1011.49
2018-02-10T07:09:13.649Z,1011.50
2018-02-10T07:10:13.643Z,1011.55
2018-02-10T07:11:13.590Z,1011.54
2018-02-10T07:12:13.656Z,1011.57
2018-02-10T07:13:13.530Z,1011.60
2018-02-10T07:14:13.567Z,1011.68
2018-02-10T07:15:13.469Z,1011.66
2018-02-10T07:16:13.479Z,1011.67
2018-02-10T07:17:13.399Z,1011.67
2018-02-10T07:18:13.486Z,1011.67
2018-02-10T07:19:13.344Z,1011.69
2018-02-10T07:20:13.399Z,1011.69
2018-02-10T07:21:13.283Z,1011.65
2018-02-10T07:22:13.312Z,1011.73
2018-02-10T07:23:13.218Z,1011.67
2018-02-10T07:24:13.219Z,1011.68
2018-02-10T07:25:13.164Z,1011.69
2018-02-10T07:26:13.238Z,1011.65
2018-02-10T07:27:13.098Z,1011.62
2018-02-10T07:28:13.144Z,1011.66
2018-02-10T07:29:13.036Z,1011.63
2018-02-10T07:30:13.057Z,1011.59
2018-02-10T07:31:12.982Z,1011.59
2018-02-10T07:32:12.959Z,1011.53
2018-02-10T07:33:12.914Z,1011.55
2018-02-10T07:34:12.975Z,1011.45
2018-02-10T07:35:12.859Z,1011.45
2018-02-10T07:36:12.884Z,1011.42
2018-02-10T07:37:12.792Z,1011.45
2018-02-10T07:38:12.794Z,1011.46
2018-02-10T07:39:12.729Z,1011.41
2018-02-10T07:40:12.804Z,1011.47
2018-02-10T07:41:12.669Z,1011.48
2018-02-10T07:42:12.716Z,1011.50
2018-02-10T07:43:12.599Z,1011.46
2018-02-10T07:44:12.626Z,1011.46
2018-02-10T07:45:12.547Z,1011.45
2018-02-10T07:46:12.536Z,1011.49
2018-02-10T07:47:12.485Z,1011.51
2018-02-10T07:48:12.548Z,1011.52
2018-02-10T07:49:12.424Z,1011.49
2018-02-10T07:50:12.459Z,1011.51
2018-02-10T07:51:12.362Z,1011.51
2018-02-10T07:52:12.371Z,1011.58
2018-02-10T07:53:12.300Z,1011.66
2018-02-10T07:54:12.383Z,1011.60
2018-02-10T07:55:12.244Z,1011.58
2018-02-10T07:56:12.301Z,1011.62
2018-02-10T07:57:12.179Z,1011.63
2018-02-10T07:58:12.202Z,1011.63
2018-02-10T07:59:12.117Z,1011.65
2018-02-10T08:00:12.120Z,1011.62
2018-02-10T08:01:12.057Z,1011.66
2018-02-10T08:02:12.126Z,1011.73
2018-02-10T08:03:11.997Z,1011.72
2018-02-10T08:04:12.038Z,1011.74
2018-02-10T08:05:11.933Z,1011.76
2018-02-10T08:06:11.945Z,1011.79
2018-02-10T08:07:11.875Z,1011.77
2018-02-10T08:08:11.858Z,1011.78
2018-02-10T08:09:11.811Z,1011.76
2018-02-10T08:10:11.867Z,1011.78
2018-02-10T08:11:11.750Z,1011.81
2018-02-10T08:12:11.778Z,1011.77
2018-02-10T08:13:11.687Z,1011.75
2018-02-10T08:14:11.690Z,1011.77
2018-02-10T08:15:11.624Z,1011.70
2018-02-10T08:16:11.695Z,1011.75
2018-02-10T08:17:11.567Z,1011.75
2018-02-10T08:18:11.610Z,1011.75
2018-02-10T08:19:11.506Z,1011.75
2018-02-10T08:20:11.520Z,1011.79
2018-02-10T08:21:11.445Z,1011.75
2018-02-10T08:22:11.431Z,1011.76
2018-02-10T08:23:11.380Z,1011.72
2018-02-10T08:24:11.453Z,1011.76
2018-02-10T08:25:11.324Z,1011.77
2018-02-10T08:26:11.380Z,1011.77
2018-02-10T08:27:11.261Z,1011.74
2018-02-10T08:28:11.263Z,1011.73
2018-02-10T08:29:11.198Z,1011.73
2018-02-10T08:30:11.275Z,1011.77
2018-02-10T08:31:11.140Z,1011.81
2018-02-10T08:32:11.185Z,1011.78
2018-02-10T08:33:11.078Z,1011.81
2018-02-10T08:34:11.096Z,1011.73
2018-02-10T08:35:11.018Z,1011.74
2018-02-10T08:36:11.005Z,1011.79
2018-02-10T08:37:11.006Z,1011.78
2018-02-10T08:38:11.017Z,1011.76
2018-02-10T08:39:10.897Z,1011.82
2018-02-10T08:40:10.931Z,1011.71
2018-02-10T08:41:10.847Z,1011.75
2018-02-10T08:42:10.838Z,1011.77
2018-02-10T08:43:10.773Z,1011.74
2018-02-10T08:44:10.850Z,1011.75
2018-02-10T08:45:10.712Z,1011.77
2018-02-10T08:46:10.761Z,1011.79
2018-02-10T08:47:10.651Z,1011.75
2018-02-10T08:48:10.674Z,1011.78
2018-02-10T08:49:10.590Z,1011.81
2018-02-10T08:50:10.584Z,1011.81
2018-02-10T08:51:10.531Z,1011.79
2018-02-10T08:52:10.599Z,1011.81
2018-02-10T08:53:10.468Z,1011.87
2018-02-10T08:54:10.506Z,1011.80
2018-02-10T08:55:10.409Z,1011.80
2018-02-10T08:56:10.417Z,1011.84
2018-02-10T08:57:10.351Z,1011.82
2018-02-10T08:58:10.431Z,1011.81
2018-02-10T08:59:10.283Z,1011.83
2018-02-10T09:00:10.339Z,1011.85
2018-02-10T09:01:10.227Z,1011.81
2018-02-10T09:02:10.253Z,1011.82
2018-02-10T09:03:10.168Z,1011.84
2018-02-10T09:04:10.161Z,1011.82
2018-02-10T09:05:10.098Z,1011.83
2018-02-10T09:06:10.176Z,1011.88
2018-02-10T09:07:10.047Z,1011.89
2018-02-10T09:08:10.080Z,1011.89
2018-02-10T09:09:09.987Z,1011.86
2018-02-10T09:10:09.989Z,1011.90
2018-02-10T09:11:09.922Z,1011.86
2018-02-10T09:12:10.003Z,1011.92
2018-02-10T09:13:09.864Z,1011.91
2018-02-10T09:14:09.914Z,1011.98
2018-02-10T09:15:09.803Z,1012.01
2018-02-10T09:16:09.829Z,1012.01
2018-02-10T09:17:09.741Z,1012.03
2018-02-10T09:18:09.733Z,1012.02
2018-02-10T09:19:09.681Z,1012.02
2018-02-10T09:20:09.750Z,1011.99
2018-02-10T09:21:09.620Z,1012.04
2018-02-10T09:22:09.654Z,1012.03
2018-02-10T09:23:09.564Z,1011.97
2018-02-10T09:24:09.564Z,1012.05
2018-02-10T09:25:09.492Z,1012.04
2018-02-10T09:26:09.576Z,1012.09
2018-02-10T09:27:09.440Z,1012.06
2018-02-10T09:28:09.488Z,1012.09
2018-02-10T09:29:09.381Z,1012.06
2018-02-10T09:30:09.396Z,1012.08
2018-02-10T09:31:09.318Z,1012.10
2018-02-10T09:32:09.321Z,1012.13
2018-02-10T09:33:09.264Z,1012.10
2018-02-10T09:34:09.396Z,1012.13
2018-02-10T09:35:09.202Z,1012.16
2018-02-10T09:36:09.308Z,1012.15
2018-02-10T09:37:09.137Z,1012.19
2018-02-10T09:38:09.218Z,1012.19
2018-02-10T09:39:09.226Z,1012.21
2018-02-10T09:40:09.049Z,1012.19
2018-02-10T09:41:09.138Z,1012.19
2018-02-10T09:42:08.988Z,1012.23
2018-02-10T09:43:09.153Z,1012.18
2018-02-10T09:44:08.930Z,1012.21
2018-02-10T09:45:09.065Z,1012.18
2018-02-10T09:46:08.868Z,1012.26
2018-02-10T09:47:08.971Z,1012.22
2018-02-10T09:48:08.810Z,1012.23
2018-02-10T09:49:08.886Z,1012.23
2018-02-10T09:50:08.746Z,1012.19
2018-02-10T09:51:08.900Z,1012.24
2018-02-10T09:52:08.717Z,1012.22
2018-02-10T09:53:08.811Z,1012.18
2018-02-10T09:54:08.638Z,1012.22
2018-02-10T09:55:08.722Z,1012.22
2018-02-10T09:56:08.566Z,1012.23
2018-02-10T09:57:08.738Z,1012.28
2018-02-10T09:58:08.506Z,1012.25
2018-02-10T09:59:08.648Z,1012.23
2018-02-10T10:00:08.445Z,1012.28
2018-02-10T10:01:08.559Z,1012.25
2018-02-10T10:02:08.386Z,1012.27
2018-02-10T10:03:08.365Z,1012.25
2018-02-10T10:04:08.324Z,1012.30
2018-02-10T10:05:08.294Z,1012.28
2018-02-10T10:06:08.265Z,1012.33
2018-02-10T10:07:08.290Z,1012.33
2018-02-10T10:08:08.203Z,1012.34
2018-02-10T10:09:08.205Z,1012.36
2018-02-10T10:10:08.144Z,1012.34
2018-02-10T10:11:08.219Z,1012.34
2018-02-10T10:12:08.085Z,1012.36
2018-02-10T10:13:08.133Z,1012.37
2018-02-10T10:14:08.024Z,1012.33
2018-02-10T10:15:08.002Z,1012.31
2018-02-10T10:16:07.964Z,1012.29
2018-02-10T10:17:07.952Z,1012.33
2018-02-10T10:18:07.902Z,1012.29
2018-02-10T10:19:07.966Z,1012.29
2018-02-10T10:20:07.847Z,1012.31
2018-02-10T10:21:07.880Z,1012.32
2018-02-10T10:22:07.785Z,1012.25
2018-02-10T10:23:07.788Z,1012.31
2018-02-10T10:24:07.722Z,1012.27
2018-02-10T10:25:07.805Z,1012.30
2018-02-10T10:26:07.667Z,1012.28
2018-02-10T10:27:07.718Z,1012.31
2018-02-10T10:28:07.665Z,1012.25
2018-02-10T10:29:07.637Z,1012.29
2018-02-10T10:30:07.541Z,1012.27
2018-02-10T10:31:07.537Z,1012.25
2018-02-10T10:32:07.481Z,1012.28
2018-02-10T10:33:07.555Z,1012.22
2018-02-10T10:34:07.427Z,1012.25
2018-02-10T10:35:07.466Z,1012.25
2018-02-10T10:36:07.371Z,1012.22
2018-02-10T10:37:07.364Z,1012.19
2018-02-10T10:38:07.305Z,1012.19
2018-02-10T10:39:07.284Z,1012.23
2018-02-10T10:40:07.261Z,1012.24
2018-02-10T10:41:07.304Z,1012.18
2018-02-10T10:42:07.184Z,1012.16
2018-02-10T10:43:07.211Z,1012.23
2018-02-10T10:44:07.124Z,1012.21
2018-02-10T10:45:07.127Z,1012.21
2018-02-10T10:46:07.064Z,1012.22
2018-02-10T10:47:07.141Z,1012.24
2018-02-10T10:48:07.007Z,1012.24
2018-02-10T10:49:07.051Z,1012.27
2018-02-10T10:50:06.946Z,1012.26
2018-02-10T10:51:06.964Z,1012.26
2018-02-10T10:52:06.888Z,1012.24
2018-02-10T10:53:06.875Z,1012.26
2018-02-10T10:54:06.826Z,1012.30
2018-02-10T10:55:06.886Z,1012.27
2018-02-10T10:56:06.769Z,1012.24
2018-02-10T10:57:06.799Z,1012.26
2018-02-10T10:58:06.706Z,1012.26
2018-02-10T10:59:06.714Z,1012.32
2018-02-10T11:00:06.647Z,1012.30
2018-02-10T11:01:06.729Z,1012.27
2018-02-10T11:02:06.587Z,1012.31
2018-02-10T11:03:06.635Z,1012.28
2018-02-10T11:04:06.530Z,1012.31
2018-02-10T11:05:06.548Z,1012.35
2018-02-10T11:06:06.466Z,1012.35
2018-02-10T11:07:06.458Z,1012.33
2018-02-10T11:08:06.411Z,1012.32
2018-02-10T11:09:06.477Z,1012.32
2018-02-10T11:10:06.354Z,1012.32
2018-02-10T11:11:06.387Z,1012.30
2018-02-10T11:12:06.293Z,1012.27
2018-02-10T11:13:06.302Z,1012.30
2018-02-10T11:14:06.232Z,1012.29
2018-02-10T11:15:06.311Z,1012.30
2018-02-10T11:16:06.180Z,1012.29
2018-02-10T11:17:06.240Z,1012.25
2018-02-10T11:18:06.113Z,1012.29
2018-02-10T11:19:06.137Z,1012.29
2018-02-10T11:20:06.055Z,1012.29
2018-02-10T11:21:06.043Z,1012.28
2018-02-10T11:22:05.998Z,1012.29
2018-02-10T11:23:06.057Z,1012.27
2018-02-10T11:24:05.941Z,1012.24
2018-02-10T11:25:05.966Z,1012.32
2018-02-10T11:26:05.881Z,1012.25
2018-02-10T11:27:05.890Z,1012.24
2018-02-10T11:28:05.818Z,1012.27
2018-02-10T11:29:05.894Z,1012.23
2018-02-10T11:30:05.768Z,1012.23
2018-02-10T11:31:05.814Z,1012.25
2018-02-10T11:32:05.707Z,1012.25
2018-02-10T11:33:05.717Z,1012.25
2018-02-10T11:34:05.642Z,1012.23
2018-02-10T11:35:05.630Z,1012.23
2018-02-10T11:36:05.583Z,1012.21
2018-02-10T11:37:05.648Z,1012.22
2018-02-10T11:38:05.523Z,1012.20
2018-02-10T11:39:05.552Z,1012.25
2018-02-10T11:40:05.464Z,1012.22
2018-02-10T11:41:05.466Z,1012.21
2018-02-10T11:42:05.406Z,1012.22
2018-02-10T11:43:05.481Z,1012.19
2018-02-10T11:44:05.346Z,1012.17
2018-02-10T11:45:05.391Z,1012.18
2018-02-10T11:46:05.297Z,1012.18
2018-02-10T11:47:05.302Z,1012.19
2018-02-10T11:48:05.227Z,1012.20
2018-02-10T11:49:05.259Z,1012.23
2018-02-10T11:50:05.170Z,1012.19
2018-02-10T11:51:05.227Z,1012.17
2018-02-10T11:52:05.114Z,1012.18
2018-02-10T11:53:05.139Z,1012.20
2018-02-10T11:54:05.055Z,1012.19
2018-02-10T11:55:05.051Z,1012.20
2018-02-10T11:56:04.996Z,1012.17
2018-02-10T11:57:05.063Z,1012.19
2018-02-10T11:58:04.936Z,1012.16
2018-02-10T11:59:04.976Z,1012.12
2018-02-10T12:00:04.878Z,1012.12
2018-02-10T12:01:04.887Z,1012.13
2018-02-10T12:02:04.819Z,1012.12
2018-02-10T12:03:04.905Z,1012.10
2018-02-10T12:04:04.762Z,1012.11
2018-02-10T12:05:04.813Z,1012.15